Terminal Aerodrome Forecast
Issued by NWS Northern Indiana

Home | Current Version | Previous Version | Text Only | Print | Product List | Glossary Off
Versions: 1 2 3 4 5 6 7 8 9 10 11 12 13 14 15

431
FTUS43 KIWX 092340
TAFFWA
TAF
KFWA 092340Z 1000/1024 29015G22KT 6SM -SHSN SCT015 OVC022
      TEMPO 1000/1003 4SM -SHSN BKN015
     FM100300 29014G21KT 4SM -SHSN OVC018
     FM100700 30013G21KT 2SM -SHSN OVC015
     FM101400 30014G22KT 4SM -SHSN OVC020=

USA.gov is the U.S. government's official web portal to all federal, state and local government web resources and services.